sensor_id;sensor_type;location;lat;lon;timestamp;pressure;altitude;pressure_sealevel;temperature;humidity
59419;BME280;45224;50.904;6.038;2023-01-29T00:00:32;101207.06;;;-1.90;82.39
59419;BME280;45224;50.904;6.038;2023-01-29T00:02:02;101206.94;;;-1.91;82.57
59419;BME280;45224;50.904;6.038;2023-01-29T00:03:34;101202.44;;;-1.95;82.15
59419;BME280;45224;50.904;6.038;2023-01-29T00:05:06;101201.41;;;-1.97;82.28
59419;BME280;45224;50.904;6.038;2023-01-29T00:06:37;101198.78;;;-1.99;82.35
59419;BME280;45224;50.904;6.038;2023-01-29T00:08:08;101190.06;;;-2.03;82.58
59419;BME280;45224;50.904;6.038;2023-01-29T00:09:39;101179.81;;;-2.04;82.44
59419;BME280;45224;50.904;6.038;2023-01-29T00:11:09;101186.31;;;-2.08;82.94
59419;BME280;45224;50.904;6.038;2023-01-29T00:12:40;101189.63;;;-2.09;83.32
59419;BME280;45224;50.904;6.038;2023-01-29T00:14:10;101186.63;;;-2.15;83.30
59419;BME280;45224;50.904;6.038;2023-01-29T00:15:41;101189.16;;;-2.15;83.71
59419;BME280;45224;50.904;6.038;2023-01-29T00:17:12;101192.47;;;-2.16;83.38
59419;BME280;45224;50.904;6.038;2023-01-29T00:18:42;101189.72;;;-2.19;83.65
59419;BME280;45224;50.904;6.038;2023-01-29T00:20:13;101180.34;;;-2.20;83.52
59419;BME280;45224;50.904;6.038;2023-01-29T00:21:45;101179.47;;;-2.21;83.77
59419;BME280;45224;50.904;6.038;2023-01-29T00:23:15;101187.06;;;-2.21;84.21
59419;BME280;45224;50.904;6.038;2023-01-29T00:24:46;101186.09;;;-2.23;83.71
59419;BME280;45224;50.904;6.038;2023-01-29T00:26:16;101169.31;;;-2.32;84.05
59419;BME280;45224;50.904;6.038;2023-01-29T00:27:50;101174.81;;;-2.26;84.25
59419;BME280;45224;50.904;6.038;2023-01-29T00:29:21;101178.91;;;-2.28;83.87
59419;BME280;45224;50.904;6.038;2023-01-29T00:30:51;101176.13;;;-2.31;84.43
59419;BME280;45224;50.904;6.038;2023-01-29T00:32:22;101179.69;;;-2.29;84.16
59419;BME280;45224;50.904;6.038;2023-01-29T00:33:52;101179.69;;;-2.29;84.59
59419;BME280;45224;50.904;6.038;2023-01-29T00:35:23;101173.38;;;-2.34;84.23
59419;BME280;45224;50.904;6.038;2023-01-29T00:36:53;101166.78;;;-2.32;84.34
59419;BME280;45224;50.904;6.038;2023-01-29T00:38:35;101172.84;;;-2.30;84.38
59419;BME280;45224;50.904;6.038;2023-01-29T00:40:06;101165.13;;;-2.32;84.74
59419;BME280;45224;50.904;6.038;2023-01-29T00:41:37;101171.84;;;-2.32;84.41
59419;BME280;45224;50.904;6.038;2023-01-29T00:43:26;101165.00;;;-2.33;84.58
59419;BME280;45224;50.904;6.038;2023-01-29T00:45:15;101163.25;;;-2.34;84.36
59419;BME280;45224;50.904;6.038;2023-01-29T00:46:46;101164.91;;;-2.35;84.77
59419;BME280;45224;50.904;6.038;2023-01-29T00:48:16;101155.63;;;-2.34;84.94
59419;BME280;45224;50.904;6.038;2023-01-29T00:49:47;101151.66;;;-2.43;84.49
59419;BME280;45224;50.904;6.038;2023-01-29T00:51:17;101154.44;;;-2.40;84.88
59419;BME280;45224;50.904;6.038;2023-01-29T00:52:48;101158.72;;;-2.39;84.96
59419;BME280;45224;50.904;6.038;2023-01-29T00:54:20;101153.44;;;-2.42;85.29
59419;BME280;45224;50.904;6.038;2023-01-29T00:55:51;101153.56;;;-2.40;85.08
59419;BME280;45224;50.904;6.038;2023-01-29T00:57:23;101151.91;;;-2.40;84.77
59419;BME280;45224;50.904;6.038;2023-01-29T00:58:54;101154.44;;;-2.40;85.06
59419;BME280;45224;50.904;6.038;2023-01-29T01:00:25;101152.69;;;-2.41;85.22
59419;BME280;45224;50.904;6.038;2023-01-29T01:01:55;101144.84;;;-2.44;84.75
59419;BME280;45224;50.904;6.038;2023-01-29T01:03:44;101157.75;;;-2.41;84.55
59419;BME280;45224;50.904;6.038;2023-01-29T01:05:16;101148.38;;;-2.42;84.37
59419;BME280;45224;50.904;6.038;2023-01-29T01:06:47;101148.38;;;-2.42;84.38
59419;BME280;45224;50.904;6.038;2023-01-29T01:08:17;101146.81;;;-2.40;84.63
59419;BME280;45224;50.904;6.038;2023-01-29T01:10:11;101149.25;;;-2.41;85.24
59419;BME280;45224;50.904;6.038;2023-01-29T01:11:51;101157.84;;;-2.39;84.92
59419;BME280;45224;50.904;6.038;2023-01-29T01:13:21;101153.66;;;-2.39;84.76
59419;BME280;45224;50.904;6.038;2023-01-29T01:14:52;101161.38;;;-2.37;84.38
59419;BME280;45224;50.904;6.038;2023-01-29T01:16:22;101164.44;;;-2.41;84.54
59419;BME280;45224;50.904;6.038;2023-01-29T01:17:58;101157.84;;;-2.39;85.03
59419;BME280;45224;50.904;6.038;2023-01-29T01:19:30;101156.72;;;-2.43;85.17
59419;BME280;45224;50.904;6.038;2023-01-29T01:21:00;101159.25;;;-2.43;85.69
59419;BME280;45224;50.904;6.038;2023-01-29T01:22:31;101161.78;;;-2.43;85.33
59419;BME280;45224;50.904;6.038;2023-01-29T01:24:01;101152.09;;;-2.48;85.60
59419;BME280;45224;50.904;6.038;2023-01-29T01:25:34;101162.69;;;-2.42;85.35
59419;BME280;45224;50.904;6.038;2023-01-29T01:27:05;101156.72;;;-2.43;85.46
59419;BME280;45224;50.904;6.038;2023-01-29T01:28:37;101153.56;;;-2.40;85.19
59419;BME280;45224;50.904;6.038;2023-01-29T01:30:11;101165.44;;;-2.39;84.89
59419;BME280;45224;50.904;6.038;2023-01-29T01:31:42;101169.09;;;-2.35;85.19
59419;BME280;45224;50.904;6.038;2023-01-29T01:33:13;101162.03;;;-2.40;84.96
59419;BME280;45224;50.904;6.038;2023-01-29T01:34:43;101158.19;;;-2.34;84.99
59419;BME280;45224;50.904;6.038;2023-01-29T01:36:16;101162.47;;;-2.33;85.00
59419;BME280;45224;50.904;6.038;2023-01-29T01:37:47;101157.41;;;-2.33;84.78
59419;BME280;45224;50.904;6.038;2023-01-29T01:39:18;101158.97;;;-2.35;84.47
59419;BME280;45224;50.904;6.038;2023-01-29T01:40:48;101144.41;;;-2.38;84.75
59419;BME280;45224;50.904;6.038;2023-01-29T01:42:19;101141.75;;;-2.40;84.65
59419;BME280;45224;50.904;6.038;2023-01-29T01:43:53;101132.41;;;-2.41;84.75
59419;BME280;45224;50.904;6.038;2023-01-29T01:45:35;101132.50;;;-2.39;84.83
59419;BME280;45224;50.904;6.038;2023-01-29T01:47:06;101127.13;;;-2.44;85.20
59419;BME280;45224;50.904;6.038;2023-01-29T01:48:36;101133.19;;;-2.42;84.46
59419;BME280;45224;50.904;6.038;2023-01-29T01:50:15;101132.19;;;-2.44;84.39
59419;BME280;45224;50.904;6.038;2023-01-29T01:51:49;101135.38;;;-2.46;84.99
59419;BME280;45224;50.904;6.038;2023-01-29T01:53:28;101139.56;;;-2.47;84.79
59419;BME280;45224;50.904;6.038;2023-01-29T01:54:59;101130.94;;;-2.49;85.04
59419;BME280;45224;50.904;6.038;2023-01-29T01:56:35;101134.25;;;-2.50;84.95
59419;BME280;45224;50.904;6.038;2023-01-29T01:58:13;101135.88;;;-2.50;85.19
59419;BME280;45224;50.904;6.038;2023-01-29T01:59:54;101135.81;;;-2.52;85.25
59419;BME280;45224;50.904;6.038;2023-01-29T02:01:25;101144.16;;;-2.53;84.69
59419;BME280;45224;50.904;6.038;2023-01-29T02:02:57;101135.34;;;-2.58;85.35
59419;BME280;45224;50.904;6.038;2023-01-29T02:04:48;101139.50;;;-2.59;85.62
59419;BME280;45224;50.904;6.038;2023-01-29T02:06:38;101142.59;;;-2.63;85.72
59419;BME280;45224;50.904;6.038;2023-01-29T02:08:59;101146.78;;;-2.63;85.73
59419;BME280;45224;50.904;6.038;2023-01-29T02:10:46;101144.78;;;-2.67;85.96
59419;BME280;45224;50.904;6.038;2023-01-29T02:12:19;101144.16;;;-2.65;85.69
59419;BME280;45224;50.904;6.038;2023-01-29T02:13:51;101138.19;;;-2.65;85.38
59419;BME280;45224;50.904;6.038;2023-01-29T02:15:28;101134.44;;;-2.70;85.68
59419;BME280;45224;50.904;6.038;2023-01-29T02:17:00;101144.03;;;-2.66;86.00
59419;BME280;45224;50.904;6.038;2023-01-29T02:18:30;101137.94;;;-2.68;86.25
59419;BME280;45224;50.904;6.038;2023-01-29T02:20:28;101140.59;;;-2.67;85.42
59419;BME280;45224;50.904;6.038;2023-01-29T02:24:20;101141.16;;;-2.71;86.36
59419;BME280;45224;50.904;6.038;2023-01-29T02:35:06;101143.97;;;-2.78;85.81
59419;BME280;45224;50.904;6.038;2023-01-29T02:37:03;101156.00;;;-2.76;86.02
59419;BME280;45224;50.904;6.038;2023-01-29T02:40:16;101159.50;;;-2.73;85.72
59419;BME280;45224;50.904;6.038;2023-01-29T02:47:54;101167.06;;;-2.63;85.69
59419;BME280;45224;50.904;6.038;2023-01-29T02:50:57;101173.84;;;-2.62;85.46
59419;BME280;45224;50.904;6.038;2023-01-29T02:52:44;101178.53;;;-2.57;86.31
59419;BME280;45224;50.904;6.038;2023-01-29T02:55:03;101180.03;;;-2.59;85.74
59419;BME280;45224;50.904;6.038;2023-01-29T02:56:47;101183.59;;;-2.57;85.44
59419;BME280;45224;50.904;6.038;2023-01-29T02:58:30;101179.38;;;-2.56;85.51
59419;BME280;45224;50.904;6.038;2023-01-29T03:00:07;101188.53;;;-2.58;85.89
59419;BME280;45224;50.904;6.038;2023-01-29T03:01:55;101189.28;;;-2.59;85.55
59419;BME280;45224;50.904;6.038;2023-01-29T03:03:33;101191.06;;;-2.58;86.00
59419;BME280;45224;50.904;6.038;2023-01-29T03:05:08;101184.22;;;-2.59;85.77
59419;BME280;45224;50.904;6.038;2023-01-29T03:06:47;101178.94;;;-2.62;86.10
59419;BME280;45224;50.904;6.038;2023-01-29T03:08:44;101187.50;;;-2.60;86.07
59419;BME280;45224;50.904;6.038;2023-01-29T03:10:27;101186.63;;;-2.61;86.07
59419;BME280;45224;50.904;6.038;2023-01-29T03:12:12;101178.69;;;-2.65;86.35
59419;BME280;45224;50.904;6.038;2023-01-29T03:14:14;101180.47;;;-2.64;86.59
59419;BME280;45224;50.904;6.038;2023-01-29T03:15:48;101171.88;;;-2.66;86.52
59419;BME280;45224;50.904;6.038;2023-01-29T03:17:40;101169.34;;;-2.66;86.88
59419;BME280;45224;50.904;6.038;2023-01-29T03:19:30;101162.59;;;-2.78;87.52
59419;BME280;45224;50.904;6.038;2023-01-29T03:21:13;101169.63;;;-2.73;87.03
59419;BME280;45224;50.904;6.038;2023-01-29T03:23:10;101168.09;;;-2.71;87.14
59419;BME280;45224;50.904;6.038;2023-01-29T03:26:37;101166.59;;;-2.69;86.73
59419;BME280;45224;50.904;6.038;2023-01-29T03:28:28;101170.75;;;-2.70;86.65
59419;BME280;45224;50.904;6.038;2023-01-29T03:30:18;101159.75;;;-2.70;86.49
59419;BME280;45224;50.904;6.038;2023-01-29T03:32:26;101162.81;;;-2.75;86.40
59419;BME280;45224;50.904;6.038;2023-01-29T03:34:08;101174.06;;;-2.71;86.38
59419;BME280;45224;50.904;6.038;2023-01-29T03:35:51;101167.66;;;-2.78;86.65
59419;BME280;45224;50.904;6.038;2023-01-29T03:39:07;101169.16;;;-2.80;87.45
59419;BME280;45224;50.904;6.038;2023-01-29T03:40:49;101168.94;;;-2.83;87.44
59419;BME280;45224;50.904;6.038;2023-01-29T03:42:28;101179.06;;;-2.83;87.39
59419;BME280;45224;50.904;6.038;2023-01-29T03:44:14;101169.84;;;-2.82;87.96
59419;BME280;45224;50.904;6.038;2023-01-29T03:46:00;101168.06;;;-2.83;88.03
59419;BME280;45224;50.904;6.038;2023-01-29T03:48:02;101174.22;;;-2.80;87.76
59419;BME280;45224;50.904;6.038;2023-01-29T03:50:07;101177.78;;;-2.78;87.56
59419;BME280;45224;50.904;6.038;2023-01-29T03:52:08;101170.06;;;-2.79;88.49
59419;BME280;45224;50.904;6.038;2023-01-29T03:53:53;101167.44;;;-2.81;88.49
59419;BME280;45224;50.904;6.038;2023-01-29T03:59:39;101177.66;;;-2.79;88.28
59419;BME280;45224;50.904;6.038;2023-01-29T04:03:22;101172.94;;;-2.75;88.49
59419;BME280;45224;50.904;6.038;2023-01-29T04:05:00;101170.41;;;-2.75;88.33
59419;BME280;45224;50.904;6.038;2023-01-29T04:06:34;101164.56;;;-2.73;88.08
59419;BME280;45224;50.904;6.038;2023-01-29T04:08:14;101159.75;;;-2.70;88.21
59419;BME280;45224;50.904;6.038;2023-01-29T04:10:00;101154.69;;;-2.70;88.14
59419;BME280;45224;50.904;6.038;2023-01-29T04:11:42;101140.44;;;-2.80;88.21
59419;BME280;45224;50.904;6.038;2023-01-29T04:13:15;101145.00;;;-2.76;88.38
59419;BME280;45224;50.904;6.038;2023-01-29T04:14:49;101155.56;;;-2.70;88.12
59419;BME280;45224;50.904;6.038;2023-01-29T04:16:26;101155.56;;;-2.70;88.28
59419;BME280;45224;50.904;6.038;2023-01-29T04:18:18;101146.34;;;-2.69;88.34
59419;BME280;45224;50.904;6.038;2023-01-29T04:20:07;101140.38;;;-2.70;88.24
59419;BME280;45224;50.904;6.038;2023-01-29T04:21:39;101139.50;;;-2.70;87.93
59419;BME280;45224;50.904;6.038;2023-01-29T04:23:21;101140.00;;;-2.75;88.03
59419;BME280;45224;50.904;6.038;2023-01-29T04:24:53;101131.13;;;-2.69;88.00
59419;BME280;45224;50.904;6.038;2023-01-29T04:28:16;101131.97;;;-2.81;88.91
59419;BME280;45224;50.904;6.038;2023-01-29T04:31:28;101120.53;;;-2.76;88.36
59419;BME280;45224;50.904;6.038;2023-01-29T04:36:37;101108.06;;;-2.84;89.14
59419;BME280;45224;50.904;6.038;2023-01-29T04:38:24;101114.25;;;-2.81;89.10
59419;BME280;45224;50.904;6.038;2023-01-29T04:41:52;101113.47;;;-2.80;89.06
59419;BME280;45224;50.904;6.038;2023-01-29T04:43:34;101105.88;;;-2.80;88.61
59419;BME280;45224;50.904;6.038;2023-01-29T04:46:51;101099.09;;;-2.81;88.84
59419;BME280;45224;50.904;6.038;2023-01-29T04:48:35;101102.81;;;-2.76;88.63
59419;BME280;45224;50.904;6.038;2023-01-29T04:50:23;101096.78;;;-2.78;88.91
59419;BME280;45224;50.904;6.038;2023-01-29T04:53:54;101099.44;;;-2.76;88.20
59419;BME280;45224;50.904;6.038;2023-01-29T04:55:42;101099.94;;;-2.80;89.17
59419;BME280;45224;50.904;6.038;2023-01-29T04:57:34;101105.13;;;-2.79;88.93
59419;BME280;45224;50.904;6.038;2023-01-29T04:59:10;101103.59;;;-2.77;88.60
59419;BME280;45224;50.904;6.038;2023-01-29T05:00:44;101102.03;;;-2.75;88.17
59419;BME280;45224;50.904;6.038;2023-01-29T05:02:18;101104.50;;;-2.76;88.86
59419;BME280;45224;50.904;6.038;2023-01-29T05:03:53;101098.53;;;-2.77;88.58
59419;BME280;45224;50.904;6.038;2023-01-29T05:05:25;101104.38;;;-2.78;88.88
59419;BME280;45224;50.904;6.038;2023-01-29T05:06:56;101105.38;;;-2.76;88.92
59419;BME280;45224;50.904;6.038;2023-01-29T05:08:28;101108.13;;;-2.72;88.45
59419;BME280;45224;50.904;6.038;2023-01-29T05:10:02;101104.03;;;-2.70;88.47
59419;BME280;45224;50.904;6.038;2023-01-29T05:11:34;101099.84;;;-2.82;88.96
59419;BME280;45224;50.904;6.038;2023-01-29T05:13:09;101100.81;;;-2.80;89.01
59419;BME280;45224;50.904;6.038;2023-01-29T05:14:42;101096.97;;;-2.75;88.73
59419;BME280;45224;50.904;6.038;2023-01-29T05:16:17;101085.34;;;-2.72;89.03
59419;BME280;45224;50.904;6.038;2023-01-29T05:17:48;101094.69;;;-2.71;88.25
59419;BME280;45224;50.904;6.038;2023-01-29T05:19:19;101099.97;;;-2.68;88.44
59419;BME280;45224;50.904;6.038;2023-01-29T05:20:50;101089.09;;;-2.67;88.47
59419;BME280;45224;50.904;6.038;2023-01-29T05:22:21;101084.91;;;-2.67;88.72
59419;BME280;45224;50.904;6.038;2023-01-29T05:24:14;101090.19;;;-2.64;88.46
59419;BME280;45224;50.904;6.038;2023-01-29T05:25:46;101085.78;;;-2.66;88.70
59419;BME280;45224;50.904;6.038;2023-01-29T05:27:21;101087.31;;;-2.68;88.71
59419;BME280;45224;50.904;6.038;2023-01-29T05:29:10;101098.69;;;-2.63;88.61
59419;BME280;45224;50.904;6.038;2023-01-29T05:30:43;101095.25;;;-2.64;88.54
59419;BME280;45224;50.904;6.038;2023-01-29T05:32:15;101085.78;;;-2.66;88.50
59419;BME280;45224;50.904;6.038;2023-01-29T05:33:45;101089.78;;;-2.58;88.51
59419;BME280;45224;50.904;6.038;2023-01-29T05:35:16;101095.81;;;-2.56;88.85
59419;BME280;45224;50.904;6.038;2023-01-29T05:36:46;101088.88;;;-2.59;88.34
59419;BME280;45224;50.904;6.038;2023-01-29T05:38:17;101085.25;;;-2.62;89.11
59419;BME280;45224;50.904;6.038;2023-01-29T05:39:48;101079.53;;;-2.60;88.59
59419;BME280;45224;50.904;6.038;2023-01-29T05:41:18;101084.94;;;-2.55;89.03
59419;BME280;45224;50.904;6.038;2023-01-29T05:42:50;101079.88;;;-2.55;88.96
59419;BME280;45224;50.904;6.038;2023-01-29T05:44:20;101082.94;;;-2.59;89.31
59419;BME280;45224;50.904;6.038;2023-01-29T05:46:00;101088.97;;;-2.57;89.07
59419;BME280;45224;50.904;6.038;2023-01-29T05:47:30;101086.91;;;-2.51;89.07
59419;BME280;45224;50.904;6.038;2023-01-29T05:49:01;101100.44;;;-2.50;89.12
59419;BME280;45224;50.904;6.038;2023-01-29T05:50:31;101089.88;;;-2.57;89.13
59419;BME280;45224;50.904;6.038;2023-01-29T05:52:02;101087.59;;;-2.53;88.78
59419;BME280;45224;50.904;6.038;2023-01-29T05:53:33;101088.78;;;-2.48;88.54
59419;BME280;45224;50.904;6.038;2023-01-29T05:55:04;101093.75;;;-2.50;88.77
59419;BME280;45224;50.904;6.038;2023-01-29T05:56:34;101098.47;;;-2.43;89.31
59419;BME280;45224;50.904;6.038;2023-01-29T05:58:05;101088.56;;;-2.51;88.85
59419;BME280;45224;50.904;6.038;2023-01-29T05:59:35;101097.25;;;-2.48;88.60
59419;BME280;45224;50.904;6.038;2023-01-29T06:01:11;101092.66;;;-2.42;88.94
59419;BME280;45224;50.904;6.038;2023-01-29T06:02:42;101085.81;;;-2.43;89.10
59419;BME280;45224;50.904;6.038;2023-01-29T06:04:12;101073.25;;;-2.41;88.84
59419;BME280;45224;50.904;6.038;2023-01-29T06:05:43;101092.66;;;-2.42;88.85
59419;BME280;45224;50.904;6.038;2023-01-29T06:07:13;101084.94;;;-2.43;88.92
59419;BME280;45224;50.904;6.038;2023-01-29T06:08:45;101087.91;;;-2.37;88.80
59419;BME280;45224;50.904;6.038;2023-01-29T06:10:16;101079.75;;;-2.45;88.54
59419;BME280;45224;50.904;6.038;2023-01-29T06:11:47;101076.59;;;-2.42;89.03
59419;BME280;45224;50.904;6.038;2023-01-29T06:13:17;101078.22;;;-2.43;88.70
59419;BME280;45224;50.904;6.038;2023-01-29T06:14:48;101076.69;;;-2.41;88.51
59419;BME280;45224;50.904;6.038;2023-01-29T06:16:18;101070.84;;;-2.40;87.94
59419;BME280;45224;50.904;6.038;2023-01-29T06:17:49;101075.44;;;-2.46;88.37
59419;BME280;45224;50.904;6.038;2023-01-29T06:19:19;101080.97;;;-2.40;87.81
59419;BME280;45224;50.904;6.038;2023-01-29T06:20:50;101087.25;;;-2.34;87.85
59419;BME280;45224;50.904;6.038;2023-01-29T06:22:20;101086.59;;;-2.44;88.24
59419;BME280;45224;50.904;6.038;2023-01-29T06:23:52;101098.94;;;-2.36;88.59
59419;BME280;45224;50.904;6.038;2023-01-29T06:25:22;101096.72;;;-2.32;88.46
59419;BME280;45224;50.904;6.038;2023-01-29T06:26:53;101107.19;;;-2.27;88.22
59419;BME280;45224;50.904;6.038;2023-01-29T06:28:23;101103.22;;;-2.35;88.41
59419;BME280;45224;50.904;6.038;2023-01-29T06:29:54;101115.03;;;-2.24;88.06
59419;BME280;45224;50.904;6.038;2023-01-29T06:31:24;101111.69;;;-2.23;87.68
59419;BME280;45224;50.904;6.038;2023-01-29T06:32:56;101124.59;;;-2.20;87.74
59419;BME280;45224;50.904;6.038;2023-01-29T06:34:28;101129.44;;;-2.23;87.30
59419;BME280;45224;50.904;6.038;2023-01-29T06:35:59;101122.63;;;-2.24;87.69
59419;BME280;45224;50.904;6.038;2023-01-29T06:37:30;101125.38;;;-2.21;88.11
59419;BME280;45224;50.904;6.038;2023-01-29T06:39:01;101117.78;;;-2.21;88.28
59419;BME280;45224;50.904;6.038;2023-01-29T06:40:32;101129.66;;;-2.20;87.85
59419;BME280;45224;50.904;6.038;2023-01-29T06:42:02;101135.41;;;-2.23;87.70
59419;BME280;45224;50.904;6.038;2023-01-29T06:43:33;101141.34;;;-2.22;88.28
59419;BME280;45224;50.904;6.038;2023-01-29T06:45:03;101133.22;;;-2.18;87.57
59419;BME280;45224;50.904;6.038;2023-01-29T06:46:34;101147.97;;;-2.12;87.86
59419;BME280;45224;50.904;6.038;2023-01-29T06:48:05;101157.47;;;-2.10;87.57
59419;BME280;45224;50.904;6.038;2023-01-29T06:49:35;101158.44;;;-2.08;87.85
59419;BME280;45224;50.904;6.038;2023-01-29T06:51:07;101148.84;;;-2.12;87.17
59419;BME280;45224;50.904;6.038;2023-01-29T06:52:38;101156.13;;;-2.05;87.69
59419;BME280;45224;50.904;6.038;2023-01-29T06:54:09;101150.06;;;-2.07;87.04
59419;BME280;45224;50.904;6.038;2023-01-29T06:55:40;101138.94;;;-2.09;87.11
59419;BME280;45224;50.904;6.038;2023-01-29T06:57:11;101144.00;;;-2.09;87.57
59419;BME280;45224;50.904;6.038;2023-01-29T06:58:41;101148.19;;;-2.09;87.19
59419;BME280;45224;50.904;6.038;2023-01-29T07:00:13;101145.00;;;-2.07;87.34
59419;BME280;45224;50.904;6.038;2023-01-29T07:01:44;101151.28;;;-2.02;87.31
59419;BME280;45224;50.904;6.038;2023-01-29T07:03:15;101146.88;;;-2.04;87.00
59419;BME280;45224;50.904;6.038;2023-01-29T07:04:46;101130.97;;;-2.13;86.85
59419;BME280;45224;50.904;6.038;2023-01-29T07:06:17;101132.75;;;-2.12;86.59
59419;BME280;45224;50.904;6.038;2023-01-29T07:07:47;101146.31;;;-2.12;86.65
59419;BME280;45224;50.904;6.038;2023-01-29T07:09:18;101125.03;;;-2.14;86.92
59419;BME280;45224;50.904;6.038;2023-01-29T07:10:50;101128.56;;;-2.12;87.29
59419;BME280;45224;50.904;6.038;2023-01-29T07:12:20;101133.41;;;-2.15;86.96
59419;BME280;45224;50.904;6.038;2023-01-29T07:13:50;101124.47;;;-2.22;86.91
59419;BME280;45224;50.904;6.038;2023-01-29T07:15:21;101122.81;;;-2.33;88.10
59419;BME280;45224;50.904;6.038;2023-01-29T07:16:51;101125.25;;;-2.34;88.01
59419;BME280;45224;50.904;6.038;2023-01-29T07:18:22;101112.56;;;-2.34;88.04
59419;BME280;45224;50.904;6.038;2023-01-29T07:19:52;101111.59;;;-2.36;87.92
59419;BME280;45224;50.904;6.038;2023-01-29T07:21:23;101101.47;;;-2.36;88.22
59419;BME280;45224;50.904;6.038;2023-01-29T07:22:55;101090.34;;;-2.39;88.23
59419;BME280;45224;50.904;6.038;2023-01-29T07:24:26;101101.22;;;-2.40;87.77
59419;BME280;45224;50.904;6.038;2023-01-29T07:26:00;101101.91;;;-2.42;88.70
59419;BME280;45224;50.904;6.038;2023-01-29T07:27:30;101110.28;;;-2.31;88.65
59419;BME280;45224;50.904;6.038;2023-01-29T07:29:00;101103.47;;;-2.32;88.75
59419;BME280;45224;50.904;6.038;2023-01-29T07:30:31;101104.56;;;-2.41;88.81
59419;BME280;45224;50.904;6.038;2023-01-29T07:32:02;101106.88;;;-2.32;88.03
59419;BME280;45224;50.904;6.038;2023-01-29T07:33:33;101106.09;;;-2.31;88.00
59419;BME280;45224;50.904;6.038;2023-01-29T07:35:04;101117.56;;;-2.24;88.31
59419;BME280;45224;50.904;6.038;2023-01-29T07:36:34;101115.56;;;-2.28;88.63
59419;BME280;45224;50.904;6.038;2023-01-29T07:38:06;101109.72;;;-2.27;88.93
59419;BME280;45224;50.904;6.038;2023-01-29T07:39:37;101108.31;;;-2.24;88.90
59419;BME280;45224;50.904;6.038;2023-01-29T07:41:09;101098.81;;;-2.26;88.89
59419;BME280;45224;50.904;6.038;2023-01-29T07:42:40;101110.59;;;-2.27;88.88
59419;BME280;45224;50.904;6.038;2023-01-29T07:44:13;101103.47;;;-2.32;88.82
59419;BME280;45224;50.904;6.038;2023-01-29T07:45:43;101102.66;;;-2.31;88.93
59419;BME280;45224;50.904;6.038;2023-01-29T07:47:14;101106.22;;;-2.17;88.93
59419;BME280;45224;50.904;6.038;2023-01-29T07:48:44;101099.50;;;-2.29;88.34
59419;BME280;45224;50.904;6.038;2023-01-29T07:50:15;101120.63;;;-2.16;88.98
59419;BME280;45224;50.904;6.038;2023-01-29T07:51:45;101121.97;;;-2.10;89.01
59419;BME280;45224;50.904;6.038;2023-01-29T07:53:16;101119.34;;;-2.11;88.74
59419;BME280;45224;50.904;6.038;2023-01-29T07:54:46;101111.94;;;-2.20;88.77
59419;BME280;45224;50.904;6.038;2023-01-29T07:56:17;101112.16;;;-2.17;89.09
59419;BME280;45224;50.904;6.038;2023-01-29T07:57:59;101114.91;;;-2.14;89.39
59419;BME280;45224;50.904;6.038;2023-01-29T07:59:30;101103.44;;;-2.09;88.93
59419;BME280;45224;50.904;6.038;2023-01-29T08:01:04;101099.06;;;-2.11;89.09
59419;BME280;45224;50.904;6.038;2023-01-29T08:02:36;101105.56;;;-2.03;88.88
59419;BME280;45224;50.904;6.038;2023-01-29T08:04:07;101093.31;;;-2.09;89.35
59419;BME280;45224;50.904;6.038;2023-01-29T08:05:37;101098.81;;;-2.03;88.60
59419;BME280;45224;50.904;6.038;2023-01-29T08:07:08;101099.91;;;-1.99;88.92
59419;BME280;45224;50.904;6.038;2023-01-29T08:08:38;101105.88;;;-1.98;88.90
59419;BME280;45224;50.904;6.038;2023-01-29T08:10:09;101103.88;;;-2.03;88.54
59419;BME280;45224;50.904;6.038;2023-01-29T08:11:40;101104.00;;;-2.01;88.03
59419;BME280;45224;50.904;6.038;2023-01-29T08:13:10;101100.03;;;-1.97;88.22
59419;BME280;45224;50.904;6.038;2023-01-29T08:14:41;101099.69;;;-2.02;88.80
59419;BME280;45224;50.904;6.038;2023-01-29T08:16:11;101109.28;;;-1.98;88.47
59419;BME280;45224;50.904;6.038;2023-01-29T08:17:42;101110.97;;;-1.98;88.56
59419;BME280;45224;50.904;6.038;2023-01-29T08:19:12;101106.28;;;-1.92;88.98
59419;BME280;45224;50.904;6.038;2023-01-29T08:20:43;101107.19;;;-1.92;88.76
59419;BME280;45224;50.904;6.038;2023-01-29T08:22:15;101109.72;;;-1.92;88.27
59419;BME280;45224;50.904;6.038;2023-01-29T08:23:45;101102.47;;;-1.87;88.74
59419;BME280;45224;50.904;6.038;2023-01-29T08:25:16;101094.41;;;-1.93;88.67
59419;BME280;45224;50.904;6.038;2023-01-29T08:26:46;101101.44;;;-1.89;88.71
59419;BME280;45224;50.904;6.038;2023-01-29T08:28:17;101096.38;;;-1.89;88.97
59419;BME280;45224;50.904;6.038;2023-01-29T08:29:48;101102.56;;;-1.86;88.65
59419;BME280;45224;50.904;6.038;2023-01-29T08:31:19;101102.88;;;-1.93;88.44
59419;BME280;45224;50.904;6.038;2023-01-29T08:32:52;101111.28;;;-1.82;88.61
59419;BME280;45224;50.904;6.038;2023-01-29T08:34:22;101113.13;;;-1.79;88.86
59419;BME280;45224;50.904;6.038;2023-01-29T08:35:53;101112.25;;;-1.80;88.63
59419;BME280;45224;50.904;6.038;2023-01-29T08:37:24;101117.97;;;-1.71;88.36
59419;BME280;45224;50.904;6.038;2023-01-29T08:38:54;101115.34;;;-1.72;88.29
59419;BME280;45224;50.904;6.038;2023-01-29T08:40:26;101119.72;;;-1.70;88.49
59419;BME280;45224;50.904;6.038;2023-01-29T08:41:56;101115.78;;;-1.66;88.71
59419;BME280;45224;50.904;6.038;2023-01-29T08:43:27;101113.56;;;-1.61;88.57
59419;BME280;45224;50.904;6.038;2023-01-29T08:44:57;101118.06;;;-1.57;88.47
59419;BME280;45224;50.904;6.038;2023-01-29T08:46:28;101110.34;;;-1.59;87.99
59419;BME280;45224;50.904;6.038;2023-01-29T08:47:58;101116.72;;;-1.52;88.03
59419;BME280;45224;50.904;6.038;2023-01-29T08:49:29;101123.00;;;-1.47;88.00
59419;BME280;45224;50.904;6.038;2023-01-29T08:51:00;101116.38;;;-1.45;88.00
59419;BME280;45224;50.904;6.038;2023-01-29T08:52:31;101120.78;;;-1.42;88.10
59419;BME280;45224;50.904;6.038;2023-01-29T08:54:02;101128.91;;;-1.35;87.42
59419;BME280;45224;50.904;6.038;2023-01-29T08:55:35;101128.91;;;-1.35;87.89
59419;BME280;45224;50.904;6.038;2023-01-29T08:57:05;101123.63;;;-1.38;87.29
59419;BME280;45224;50.904;6.038;2023-01-29T08:58:36;101119.03;;;-1.43;87.38